createdAt,value
2018-05-17T00:01:02.138Z,81.20
2018-05-17T00:03:29.825Z,80.40
2018-05-17T00:05:57.682Z,80.30
2018-05-17T00:08:25.535Z,80.50
2018-05-17T00:10:53.299Z,80.60
2018-05-17T00:13:21.076Z,80.60
2018-05-17T00:15:48.836Z,80.70
2018-05-17T00:18:16.620Z,80.60
2018-05-17T00:20:44.394Z,80.60
2018-05-17T00:23:12.849Z,81.20
2018-05-17T00:25:40.500Z,80.40
2018-05-17T00:28:08.197Z,80.80
2018-05-17T00:30:36.748Z,80.80
2018-05-17T00:33:04.451Z,80.80
2018-05-17T00:35:32.994Z,81.10
2018-05-17T00:38:00.669Z,80.50
2018-05-17T00:40:28.291Z,80.40
2018-05-17T00:42:55.931Z,80.30
2018-05-17T00:45:24.571Z,80.80
2018-05-17T00:47:52.430Z,80.80
2018-05-17T00:50:20.301Z,80.80
2018-05-17T00:53:00.151Z,80.70
2018-05-17T00:55:27.948Z,80.80
2018-05-17T00:57:56.496Z,81.00
2018-05-17T01:00:24.136Z,81.00
2018-05-17T01:02:51.822Z,80.70
2018-05-17T01:05:19.472Z,81.00
2018-05-17T01:07:47.181Z,80.90
2018-05-17T01:10:14.942Z,81.50
2018-05-17T01:12:42.708Z,82.10
2018-05-17T01:15:10.545Z,81.90
2018-05-17T01:17:38.337Z,81.80
2018-05-17T01:20:05.970Z,81.40
2018-05-17T01:22:33.588Z,81.40
2018-05-17T01:25:02.053Z,81.00
2018-05-17T01:27:30.492Z,81.10
2018-05-17T01:29:58.157Z,81.10
2018-05-17T01:32:26.225Z,81.30
2018-05-17T01:34:53.939Z,81.20
2018-05-17T01:37:33.376Z,81.10
2018-05-17T01:40:01.851Z,81.30
2018-05-17T01:42:30.392Z,80.90
2018-05-17T01:44:58.063Z,80.90
2018-05-17T01:47:25.710Z,80.80
2018-05-17T01:49:53.481Z,81.00
2018-05-17T01:52:21.348Z,81.00
2018-05-17T01:54:49.029Z,81.10
2018-05-17T01:57:16.791Z,81.00
2018-05-17T01:59:44.540Z,81.00
2018-05-17T02:02:12.960Z,81.10
2018-05-17T02:04:40.713Z,81.00
2018-05-17T02:07:08.551Z,81.80
2018-05-17T02:09:36.249Z,81.00
2018-05-17T02:12:04.081Z,80.90
2018-05-17T02:14:31.712Z,80.90
2018-05-17T02:16:59.407Z,81.20
2018-05-17T02:19:27.273Z,81.40
2018-05-17T02:21:55.046Z,81.60
2018-05-17T02:24:22.907Z,81.40
2018-05-17T02:26:50.577Z,81.40
2018-05-17T02:29:18.437Z,81.40
2018-05-17T02:31:46.225Z,81.20
2018-05-17T02:34:13.877Z,81.30
2018-05-17T02:36:42.547Z,81.50
2018-05-17T02:39:10.415Z,81.40
2018-05-17T02:41:38.279Z,81.40
2018-05-17T02:44:06.059Z,81.60
2018-05-17T02:46:33.704Z,81.60
2018-05-17T02:49:01.420Z,81.40
2018-05-17T02:51:30.060Z,81.40
2018-05-17T02:53:57.753Z,81.40
2018-05-17T02:56:25.591Z,81.50
2018-05-17T02:58:53.455Z,82.40
2018-05-17T03:01:21.250Z,81.50
2018-05-17T03:03:48.910Z,81.70
2018-05-17T03:06:16.556Z,81.60
2018-05-17T03:08:44.188Z,81.70
2018-05-17T03:11:11.845Z,81.70
2018-05-17T03:13:39.483Z,82.10
2018-05-17T03:16:07.876Z,82.20
2018-05-17T03:18:36.315Z,82.30
2018-05-17T03:21:04.067Z,82.30
2018-05-17T03:23:31.688Z,82.50
2018-05-17T03:25:59.482Z,82.60
2018-05-17T03:28:27.145Z,82.30
2018-05-17T03:30:54.837Z,82.30
2018-05-17T03:33:22.601Z,82.40
2018-05-17T03:35:50.316Z,82.50
2018-05-17T03:38:17.954Z,82.60
2018-05-17T03:40:46.344Z,82.50
2018-05-17T03:43:14.060Z,82.40
2018-05-17T03:45:41.719Z,82.90
2018-05-17T03:48:09.385Z,82.80
2018-05-17T03:50:37.123Z,82.40
2018-05-17T03:53:04.781Z,82.60
2018-05-17T03:55:32.410Z,82.50
2018-05-17T03:58:01.960Z,82.60
2018-05-17T04:00:41.598Z,82.50
2018-05-17T04:03:21.090Z,82.20
2018-05-17T04:06:01.607Z,83.20
2018-05-17T04:08:29.366Z,82.40
2018-05-17T04:10:57.712Z,82.50
2018-05-17T04:13:26.232Z,82.20
2018-05-17T04:15:53.932Z,82.10
2018-05-17T04:18:22.343Z,81.80
2018-05-17T04:20:50.073Z,81.60
2018-05-17T04:23:17.907Z,81.40
2018-05-17T04:25:45.526Z,81.30
2018-05-17T04:28:14.101Z,81.20
2018-05-17T04:30:42.635Z,80.70
2018-05-17T04:33:10.412Z,80.70
2018-05-17T04:35:38.268Z,81.00
2018-05-17T04:38:06.481Z,80.60
2018-05-17T04:40:35.089Z,80.40
2018-05-17T04:43:02.892Z,80.90
2018-05-17T04:45:30.520Z,80.70
2018-05-17T04:47:58.165Z,80.70
2018-05-17T04:50:26.698Z,81.00
2018-05-17T04:52:54.465Z,81.00
2018-05-17T04:55:22.332Z,81.10
2018-05-17T04:57:50.096Z,81.00
2018-05-17T05:00:17.929Z,80.60
2018-05-17T05:02:45.668Z,80.80
2018-05-17T05:05:13.317Z,80.70
2018-05-17T05:07:41.157Z,80.50
2018-05-17T05:10:09.023Z,80.70
2018-05-17T05:12:38.032Z,80.90
2018-05-17T05:15:05.706Z,81.00
2018-05-17T05:17:33.487Z,81.10
2018-05-17T05:20:02.067Z,81.30
2018-05-17T05:22:30.528Z,81.70
2018-05-17T05:24:58.192Z,81.70
2018-05-17T05:27:27.084Z,81.60
2018-05-17T05:29:54.909Z,81.40
2018-05-17T05:32:22.604Z,81.20
2018-05-17T05:34:50.584Z,81.40
2018-05-17T05:37:18.358Z,80.90
2018-05-17T05:39:46.007Z,81.50
2018-05-17T05:42:13.661Z,81.50
2018-05-17T05:44:41.319Z,81.20
2018-05-17T05:47:08.970Z,80.90
2018-05-17T05:49:36.656Z,80.70
2018-05-17T05:52:04.434Z,80.50
2018-05-17T05:54:32.065Z,80.60
2018-05-17T05:56:59.954Z,80.70
2018-05-17T05:59:27.640Z,80.70
2018-05-17T06:01:56.056Z,81.00
2018-05-17T06:04:23.684Z,81.00
2018-05-17T06:06:52.152Z,81.00
2018-05-17T06:09:19.803Z,80.90
2018-05-17T06:11:47.749Z,81.80
2018-05-17T06:14:15.420Z,80.50
2018-05-17T06:16:43.084Z,80.20
2018-05-17T06:19:10.940Z,79.60
2018-05-17T06:21:38.778Z,80.10
2018-05-17T06:24:06.467Z,80.20
2018-05-17T06:26:34.132Z,79.80
2018-05-17T06:29:01.897Z,80.30
2018-05-17T06:31:29.763Z,79.50
2018-05-17T06:33:57.433Z,79.70
2018-05-17T06:36:25.193Z,80.00
2018-05-17T06:38:54.084Z,80.30
2018-05-17T06:41:21.710Z,80.30
2018-05-17T06:43:49.419Z,79.30
2018-05-17T06:46:17.172Z,79.20
2018-05-17T06:48:44.811Z,79.30
2018-05-17T06:51:12.456Z,79.60
2018-05-17T06:53:40.260Z,79.40
2018-05-17T06:56:07.953Z,78.90
2018-05-17T06:58:35.717Z,78.80
2018-05-17T07:01:03.431Z,79.20
2018-05-17T07:03:31.808Z,79.10
2018-05-17T07:05:59.597Z,79.10
2018-05-17T07:08:27.463Z,78.80
2018-05-17T07:10:55.140Z,78.50
2018-05-17T07:13:22.937Z,78.90
2018-05-17T07:15:51.372Z,78.70
2018-05-17T07:18:19.206Z,78.60
2018-05-17T07:20:46.812Z,78.30
2018-05-17T07:23:14.768Z,79.20
2018-05-17T07:25:42.417Z,78.80
2018-05-17T07:28:10.055Z,78.70
2018-05-17T07:30:38.541Z,78.10
2018-05-17T07:33:06.285Z,78.10
2018-05-17T07:35:34.862Z,78.00
2018-05-17T07:38:02.690Z,77.90
2018-05-17T07:40:30.459Z,78.10
2018-05-17T07:42:58.120Z,78.20
2018-05-17T07:45:25.828Z,78.10
2018-05-17T07:47:54.261Z,78.00
2018-05-17T07:50:21.883Z,78.00
2018-05-17T07:52:50.298Z,77.20
2018-05-17T07:55:17.951Z,77.20
2018-05-17T07:57:45.661Z,76.70
2018-05-17T08:00:13.391Z,76.70
2018-05-17T08:02:41.076Z,77.00
2018-05-17T08:05:08.818Z,77.60
2018-05-17T08:07:36.515Z,78.00
2018-05-17T08:10:04.141Z,78.00
2018-05-17T08:12:31.833Z,77.80
2018-05-17T08:15:00.263Z,78.30
2018-05-17T08:17:28.058Z,78.30
2018-05-17T08:19:56.668Z,78.00
2018-05-17T08:22:24.288Z,78.00
2018-05-17T08:24:52.113Z,77.90
2018-05-17T08:27:20.572Z,77.30
2018-05-17T08:29:48.311Z,77.30
2018-05-17T08:32:16.074Z,77.50
2018-05-17T08:34:43.839Z,77.30
2018-05-17T08:37:11.539Z,76.60
2018-05-17T08:39:39.184Z,75.90
2018-05-17T08:42:06.932Z,76.30
2018-05-17T08:44:35.377Z,75.00
2018-05-17T08:47:03.897Z,74.10
2018-05-17T08:49:31.768Z,74.00
2018-05-17T08:51:59.483Z,74.40
2018-05-17T08:54:27.327Z,74.10
2018-05-17T08:56:55.010Z,73.70
2018-05-17T08:59:23.436Z,73.10
2018-05-17T09:01:51.129Z,73.10
2018-05-17T09:04:18.768Z,72.80
2018-05-17T09:06:46.413Z,73.80
2018-05-17T09:09:14.286Z,72.50
2018-05-17T09:11:41.980Z,71.90
2018-05-17T09:14:09.651Z,71.30
2018-05-17T09:16:37.307Z,70.90
2018-05-17T09:19:04.924Z,72.50
2018-05-17T09:21:32.749Z,73.20
2018-05-17T09:24:01.203Z,72.50
2018-05-17T09:26:28.832Z,72.30
2018-05-17T09:28:56.609Z,72.40
2018-05-17T09:31:24.236Z,72.50
2018-05-17T09:33:52.056Z,71.90
2018-05-17T09:36:20.561Z,72.40
2018-05-17T09:38:48.996Z,72.50
2018-05-17T09:41:16.755Z,72.50
2018-05-17T09:43:44.457Z,73.10
2018-05-17T09:46:12.122Z,73.60
2018-05-17T09:48:39.775Z,73.70
2018-05-17T09:51:08.337Z,73.90
2018-05-17T09:53:36.100Z,73.90
2018-05-17T09:56:03.864Z,73.20
2018-05-17T09:58:31.630Z,73.50
2018-05-17T10:00:59.326Z,73.60
2018-05-17T10:03:27.979Z,73.20
2018-05-17T10:05:55.634Z,73.90
2018-05-17T10:08:23.386Z,73.50
2018-05-17T10:10:51.055Z,73.70
2018-05-17T10:13:18.681Z,73.90
2018-05-17T10:15:47.208Z,74.30
2018-05-17T10:18:15.013Z,74.20
2018-05-17T10:20:42.843Z,74.40
2018-05-17T10:23:10.642Z,74.70
2018-05-17T10:25:38.396Z,74.70
2018-05-17T10:28:06.240Z,74.90
2018-05-17T10:30:33.911Z,74.60
2018-05-17T10:33:01.598Z,75.10
2018-05-17T10:35:29.232Z,75.00
2018-05-17T10:37:56.904Z,74.80
2018-05-17T10:40:24.577Z,74.40
2018-05-17T10:42:52.389Z,74.30
2018-05-17T10:45:20.010Z,74.20
2018-05-17T10:47:47.682Z,74.20
2018-05-17T10:50:16.129Z,74.00
2018-05-17T10:52:43.772Z,74.00
2018-05-17T10:55:11.443Z,74.00
2018-05-17T10:57:39.419Z,74.50
2018-05-17T11:00:07.188Z,73.30
2018-05-17T11:02:34.920Z,73.40
2018-05-17T11:05:02.540Z,74.00
2018-05-17T11:07:30.377Z,73.80
2018-05-17T11:09:58.041Z,73.70
2018-05-17T11:12:25.689Z,73.90
2018-05-17T11:14:53.394Z,73.10
2018-05-17T11:17:21.889Z,73.00
2018-05-17T11:19:50.297Z,72.00
2018-05-17T11:22:18.008Z,71.90
2018-05-17T11:24:45.686Z,71.60
2018-05-17T11:27:14.237Z,71.10
2018-05-17T11:29:42.842Z,71.00
2018-05-17T11:32:10.651Z,71.40
2018-05-17T11:34:38.331Z,71.50
2018-05-17T11:37:05.951Z,71.60
2018-05-17T11:39:34.533Z,71.50
2018-05-17T11:42:03.009Z,71.90
2018-05-17T11:44:31.559Z,72.40
2018-05-17T11:46:59.231Z,72.40
2018-05-17T11:49:26.893Z,71.90
2018-05-17T11:51:54.552Z,72.30
2018-05-17T11:54:22.311Z,71.90
2018-05-17T11:56:50.187Z,72.20
2018-05-17T11:59:17.804Z,72.50
2018-05-17T12:01:45.499Z,72.00
2018-05-17T12:04:13.150Z,71.70
2018-05-17T12:06:40.852Z,72.60
2018-05-17T12:09:08.525Z,72.30
2018-05-17T12:11:36.320Z,72.50
2018-05-17T12:14:04.016Z,72.30
2018-05-17T12:16:31.927Z,72.50
2018-05-17T12:19:00.468Z,71.40
2018-05-17T12:21:28.124Z,71.30
2018-05-17T12:23:55.773Z,70.80
2018-05-17T12:26:23.433Z,70.50
2018-05-17T12:28:51.160Z,70.30
2018-05-17T12:31:19.637Z,69.80
2018-05-17T12:33:48.111Z,71.00
2018-05-17T12:36:15.949Z,70.70
2018-05-17T12:38:43.579Z,69.90
2018-05-17T12:41:11.297Z,69.40
2018-05-17T12:43:38.965Z,69.30
2018-05-17T12:46:06.609Z,69.70
2018-05-17T12:48:34.465Z,69.60
2018-05-17T12:51:02.116Z,69.10
2018-05-17T12:53:29.787Z,69.50
2018-05-17T12:55:57.427Z,69.30
2018-05-17T12:58:25.219Z,69.60
2018-05-17T13:00:52.925Z,69.90
2018-05-17T13:03:21.303Z,69.90
2018-05-17T13:05:49.775Z,69.50
2018-05-17T13:08:18.427Z,69.40
2018-05-17T13:10:46.810Z,69.20
2018-05-17T13:13:14.455Z,69.20
2018-05-17T13:15:42.234Z,68.10
2018-05-17T13:18:09.899Z,68.30
2018-05-17T13:20:37.581Z,68.40
2018-05-17T13:23:05.429Z,67.90
2018-05-17T13:25:33.093Z,67.10
2018-05-17T13:28:00.711Z,67.20
2018-05-17T13:30:29.440Z,67.80
2018-05-17T13:32:57.097Z,67.80
2018-05-17T13:35:24.733Z,68.10
2018-05-17T13:37:52.632Z,67.70
2018-05-17T13:40:21.052Z,69.20
2018-05-17T13:42:49.525Z,68.10
2018-05-17T13:45:17.183Z,68.10
2018-05-17T13:47:45.122Z,67.80
2018-05-17T13:50:12.812Z,67.10
2018-05-17T13:52:40.548Z,66.90
2018-05-17T13:55:08.232Z,67.30
2018-05-17T13:57:36.009Z,67.50
2018-05-17T14:00:04.419Z,67.30
2018-05-17T14:02:32.977Z,67.30
2018-05-17T14:05:00.708Z,67.30
2018-05-17T14:07:28.380Z,67.60
2018-05-17T14:09:56.135Z,67.60
2018-05-17T14:12:23.915Z,67.70
2018-05-17T14:14:51.764Z,68.10
2018-05-17T14:17:19.538Z,68.20
2018-05-17T14:19:47.200Z,68.30
2018-05-17T14:22:14.880Z,67.70
2018-05-17T14:24:42.717Z,68.10
2018-05-17T14:27:10.387Z,67.40
2018-05-17T14:29:38.009Z,67.60
2018-05-17T14:32:05.681Z,67.80
2018-05-17T14:34:33.469Z,67.70
2018-05-17T14:37:01.103Z,68.10
2018-05-17T14:39:28.902Z,68.50
2018-05-17T14:41:56.530Z,68.50
2018-05-17T14:44:24.187Z,69.00
2018-05-17T14:46:51.888Z,68.90
2018-05-17T14:49:19.557Z,69.10
2018-05-17T14:51:47.314Z,68.80
2018-05-17T14:54:15.931Z,68.10
2018-05-17T14:56:43.767Z,68.00
2018-05-17T14:59:11.530Z,68.10
2018-05-17T15:01:39.184Z,68.70
2018-05-17T15:04:06.832Z,68.90
2018-05-17T15:06:34.597Z,67.70
2018-05-17T15:09:02.384Z,68.00
2018-05-17T15:11:30.097Z,68.10
2018-05-17T15:13:58.751Z,67.60
2018-05-17T15:16:26.503Z,67.60
2018-05-17T15:18:54.296Z,67.00
2018-05-17T15:21:22.054Z,67.70
2018-05-17T15:23:49.705Z,66.90
2018-05-17T15:26:17.337Z,66.50
2018-05-17T15:28:45.041Z,66.50
2018-05-17T15:31:12.826Z,67.10
2018-05-17T15:33:41.276Z,66.70
2018-05-17T15:36:09.139Z,66.60
2018-05-17T15:38:36.893Z,66.80
2018-05-17T15:41:04.690Z,66.60
2018-05-17T15:43:32.522Z,66.70
2018-05-17T15:46:00.292Z,66.50
2018-05-17T15:48:29.132Z,66.80
2018-05-17T15:50:57.408Z,66.30
2018-05-17T15:53:26.038Z,66.70
2018-05-17T15:55:53.666Z,66.70
2018-05-17T15:58:21.387Z,67.30
2018-05-17T16:00:49.057Z,67.20
2018-05-17T16:03:16.896Z,66.60
2018-05-17T16:05:44.663Z,66.70
2018-05-17T16:08:12.289Z,66.60
2018-05-17T16:10:39.965Z,66.80
2018-05-17T16:13:07.752Z,66.90
2018-05-17T16:15:35.579Z,67.10
2018-05-17T16:18:04.010Z,66.90
2018-05-17T16:20:31.861Z,66.90
2018-05-17T16:22:59.831Z,67.20
2018-05-17T16:25:27.475Z,66.90
2018-05-17T16:27:55.090Z,67.30
2018-05-17T16:30:22.921Z,67.20
2018-05-17T16:32:50.691Z,67.20
2018-05-17T16:35:18.376Z,67.10
2018-05-17T16:37:46.116Z,67.00
2018-05-17T16:40:13.753Z,66.90
2018-05-17T16:42:41.419Z,67.20
2018-05-17T16:45:09.305Z,67.60
2018-05-17T16:47:36.927Z,67.60
2018-05-17T16:50:04.669Z,67.30
2018-05-17T16:52:33.191Z,66.80
2018-05-17T16:55:00.964Z,66.70
2018-05-17T16:57:28.749Z,67.00
2018-05-17T16:59:56.422Z,66.80
2018-05-17T17:02:24.101Z,67.10
2018-05-17T17:04:51.738Z,68.10
2018-05-17T17:07:19.498Z,68.20
2018-05-17T17:09:47.164Z,68.00
2018-05-17T17:12:14.809Z,67.60
2018-05-17T17:14:42.585Z,67.70
2018-05-17T17:17:10.563Z,67.70
2018-05-17T17:19:38.350Z,68.20
2018-05-17T17:22:06.037Z,68.40
2018-05-17T17:24:35.183Z,67.90
2018-05-17T17:27:02.862Z,67.90
2018-05-17T17:29:30.605Z,68.10
2018-05-17T17:31:58.237Z,67.90
2018-05-17T17:34:25.943Z,67.80
2018-05-17T17:36:53.700Z,68.10
2018-05-17T17:39:21.460Z,67.90
2018-05-17T17:41:49.223Z,68.00
2018-05-17T17:44:16.845Z,68.10
2018-05-17T17:46:45.265Z,68.50
2018-05-17T17:49:13.008Z,68.50
2018-05-17T17:51:41.409Z,68.40
2018-05-17T17:54:09.174Z,68.30
2018-05-17T17:56:36.946Z,68.60
2018-05-17T17:59:04.666Z,68.20
2018-05-17T18:01:33.683Z,67.80
2018-05-17T18:04:01.806Z,67.70
2018-05-17T18:06:29.943Z,68.10
2018-05-17T18:08:58.228Z,68.60
2018-05-17T18:11:28.503Z,68.60
2018-05-17T18:13:56.351Z,68.50
2018-05-17T18:16:24.829Z,68.10
2018-05-17T18:18:52.698Z,68.10
2018-05-17T18:21:23.073Z,68.00
2018-05-17T18:23:50.771Z,68.10
2018-05-17T18:26:18.393Z,68.20
2018-05-17T18:28:46.041Z,68.40
2018-05-17T18:31:14.671Z,68.80
2018-05-17T18:33:42.489Z,68.10
2018-05-17T18:36:10.400Z,68.20
2018-05-17T18:38:38.084Z,68.20
2018-05-17T18:41:05.803Z,68.20
2018-05-17T18:43:33.485Z,67.80
2018-05-17T18:46:01.190Z,67.80
2018-05-17T18:48:29.614Z,68.00
2018-05-17T18:50:57.396Z,68.00
2018-05-17T18:53:25.074Z,67.60
2018-05-17T18:56:00.063Z,67.50
2018-05-17T18:58:28.776Z,67.50
2018-05-17T19:00:57.199Z,67.20
2018-05-17T19:03:26.988Z,67.80
2018-05-17T19:05:56.479Z,67.70
2018-05-17T19:08:25.467Z,67.70
2018-05-17T19:10:54.973Z,67.90
2018-05-17T19:13:23.020Z,67.50
2018-05-17T19:15:56.484Z,67.70
2018-05-17T19:18:26.703Z,67.20
2018-05-17T19:20:57.258Z,67.20
2018-05-17T19:23:25.161Z,67.10
2018-05-17T19:25:55.801Z,66.50
2018-05-17T19:28:24.257Z,66.50
2018-05-17T19:30:53.483Z,66.70
2018-05-17T19:33:21.345Z,66.20
2018-05-17T19:35:49.188Z,66.30
2018-05-17T19:38:16.811Z,66.30
2018-05-17T19:40:45.199Z,66.20
2018-05-17T19:43:13.652Z,66.30
2018-05-17T19:45:41.275Z,66.30
2018-05-17T19:48:10.433Z,66.70
2018-05-17T19:50:38.144Z,66.80
2018-05-17T19:53:06.019Z,67.00
2018-05-17T19:55:33.647Z,67.20
2018-05-17T19:58:01.586Z,66.70
2018-05-17T20:00:29.356Z,66.70
2018-05-17T20:02:57.737Z,66.80
2018-05-17T20:05:26.129Z,66.90
2018-05-17T20:07:54.672Z,67.10
2018-05-17T20:10:22.421Z,67.10
2018-05-17T20:12:50.196Z,66.90
2018-05-17T20:15:18.052Z,66.40
2018-05-17T20:17:45.735Z,66.40
2018-05-17T20:20:13.525Z,66.80
2018-05-17T20:22:41.944Z,66.90
2018-05-17T20:25:09.724Z,66.80
2018-05-17T20:27:37.433Z,67.10
2018-05-17T20:30:05.904Z,66.80
2018-05-17T20:32:33.681Z,66.80
2018-05-17T20:35:02.267Z,66.10
2018-05-17T20:37:30.910Z,66.20
2018-05-17T20:39:58.977Z,66.20
2018-05-17T20:42:27.744Z,66.90
2018-05-17T20:44:55.400Z,66.70
2018-05-17T20:47:23.192Z,66.60
2018-05-17T20:49:51.059Z,66.10
2018-05-17T20:52:18.760Z,66.40
2018-05-17T20:54:46.595Z,66.60
2018-05-17T20:57:14.320Z,66.10
2018-05-17T20:59:42.119Z,65.90
2018-05-17T21:02:09.835Z,65.90
2018-05-17T21:04:38.317Z,66.60
2018-05-17T21:07:05.956Z,67.20
2018-05-17T21:09:33.681Z,66.70
2018-05-17T21:12:01.559Z,66.80
2018-05-17T21:14:29.193Z,66.30
2018-05-17T21:16:56.876Z,66.30
2018-05-17T21:19:24.581Z,66.30
2018-05-17T21:21:53.004Z,67.30
2018-05-17T21:24:20.820Z,66.60
2018-05-17T21:26:48.499Z,66.70
2018-05-17T21:29:16.989Z,66.80
2018-05-17T21:31:45.411Z,67.10
2018-05-17T21:34:13.074Z,66.90
2018-05-17T21:36:40.790Z,66.60
2018-05-17T21:39:08.554Z,66.40
2018-05-17T21:41:36.930Z,66.30
2018-05-17T21:44:05.368Z,66.40
2018-05-17T21:46:32.976Z,66.40
2018-05-17T21:49:01.614Z,66.50
2018-05-17T21:51:29.232Z,66.40
2018-05-17T21:53:57.633Z,66.90
2018-05-17T21:56:25.276Z,66.90
2018-05-17T21:58:53.729Z,66.70
2018-05-17T22:01:21.353Z,66.70
2018-05-17T22:03:49.000Z,66.50
2018-05-17T22:06:16.788Z,66.70
2018-05-17T22:08:44.448Z,66.80
2018-05-17T22:11:12.155Z,67.40
2018-05-17T22:13:40.604Z,67.80
2018-05-17T22:16:08.356Z,67.60
2018-05-17T22:18:36.126Z,67.70
2018-05-17T22:21:03.778Z,67.10
2018-05-17T22:23:31.449Z,67.70
2018-05-17T22:25:59.312Z,67.30
2018-05-17T22:28:27.008Z,67.90
2018-05-17T22:30:54.842Z,68.10
2018-05-17T22:33:22.647Z,67.70
2018-05-17T22:35:51.232Z,68.10
2018-05-17T22:38:19.778Z,67.90
2018-05-17T22:40:47.399Z,67.70
2018-05-17T22:43:15.949Z,68.20
2018-05-17T22:45:43.784Z,68.20
2018-05-17T22:48:11.411Z,68.40
2018-05-17T22:50:39.944Z,68.20
2018-05-17T22:53:07.693Z,68.20
2018-05-17T22:55:35.371Z,68.00
2018-05-17T22:58:14.916Z,68.00
2018-05-17T23:00:42.765Z,68.00
2018-05-17T23:03:10.456Z,67.80
2018-05-17T23:05:38.082Z,68.40
2018-05-17T23:08:05.855Z,68.20
2018-05-17T23:10:33.652Z,68.80
2018-05-17T23:13:01.346Z,69.90
2018-05-17T23:15:29.014Z,69.10
2018-05-17T23:17:56.811Z,69.10
2018-05-17T23:20:24.432Z,68.90
2018-05-17T23:22:52.986Z,69.30
2018-05-17T23:25:20.645Z,69.10
2018-05-17T23:27:48.314Z,69.00
2018-05-17T23:30:15.944Z,68.70
2018-05-17T23:32:43.563Z,68.90
2018-05-17T23:35:11.984Z,68.70
2018-05-17T23:37:39.747Z,68.60
2018-05-17T23:40:19.406Z,68.80
2018-05-17T23:42:47.159Z,69.20
2018-05-17T23:45:14.949Z,69.10
2018-05-17T23:47:42.560Z,69.10
2018-05-17T23:50:10.356Z,69.20
2018-05-17T23:52:38.144Z,69.20
2018-05-17T23:55:05.764Z,69.40
2018-05-17T23:57:33.641Z,69.30
